ENGINEERING TRACK TESTING
Weather & Rail Temperature Monitoring

Weather station CORK

Cork Interlocking (Lancaster PA)

Measurement History

Home Current History Weekly graphs

,

to download data from the start of , to the end of ,

Conditions for past 24 hours (since 09/01/2026 01:29 AM)

Time Track 1F S rail Track 1F N rail Track 1 S rail Track 1 N rail Outside Air
Temperature
Solar
Radiation
Max. Wind Humidity Air Pressure Rain
SpeedDir
09/02/2026 01:15 AM 73 °F 73 °F 73 °F 75 °F 74.2 °F 0 watt/m2 1 mph E 91 % 29.76 in Hg 0 in
09/02/2026 01:00 AM 73 °F 73 °F 73 °F 75 °F 74.4 °F 0 watt/m2 4 mph E 91 % 29.768 in Hg 0 in
09/02/2026 12:45 AM 73 °F 73 °F 73 °F 76 °F 74.4 °F 0 watt/m2 2 mph E 91 % 29.759 in Hg 0 in
09/02/2026 12:30 AM 73 °F 73 °F 73 °F 76 °F 74.5 °F 0 watt/m2 4 mph NNW 90 % 29.756 in Hg 0 in
09/02/2026 12:15 AM 74 °F 73 °F 73 °F 76 °F 74.7 °F 0 watt/m2 2 mph NNW 89 % 29.762 in Hg 0 in
09/02/2026 12:00 AM 74 °F 73 °F 73 °F 76 °F 74.8 °F 0 watt/m2 6 mph NNW 88 % 29.79 in Hg 0 in
09/01/2026 11:45 PM 74 °F 74 °F 74 °F 76 °F 75.1 °F 0 watt/m2 7 mph E 87 % 29.792 in Hg 0 in
09/01/2026 11:30 PM 74 °F 74 °F 74 °F 76 °F 75.5 °F 0 watt/m2 5 mph E 88 % 29.777 in Hg 0 in
09/01/2026 11:15 PM 75 °F 74 °F 74 °F 77 °F 75.8 °F 0 watt/m2 5 mph E 88 % 29.746 in Hg 0 in
09/01/2026 11:00 PM 75 °F 74 °F 75 °F 77 °F 75.8 °F 0 watt/m2 0 mph --- 86 % 29.729 in Hg 0 in
09/01/2026 10:45 PM 75 °F 75 °F 75 °F 77 °F 76 °F 0 watt/m2 9 mph NW 86 % 29.723 in Hg 0 in
09/01/2026 10:30 PM 77 °F 76 °F 76 °F 78 °F 76.6 °F 0 watt/m2 7 mph NNW 84 % 29.69 in Hg 0 in
09/01/2026 10:15 PM 79 °F 78 °F 78 °F 80 °F 77.3 °F 0 watt/m2 8 mph NE 82 % 29.705 in Hg 0 in
09/01/2026 10:00 PM 81 °F 81 °F 81 °F 83 °F 77.5 °F 0 watt/m2 6 mph E 79 % 29.731 in Hg 0 in
09/01/2026 09:45 PM 82 °F 81 °F 81 °F 84 °F 77.5 °F 0 watt/m2 9 mph E 77 % 29.719 in Hg 0 in
09/01/2026 09:30 PM 83 °F 82 °F 82 °F 84 °F 77.3 °F 0 watt/m2 8 mph E 76 % 29.731 in Hg 0 in
09/01/2026 09:15 PM 84 °F 84 °F 83 °F 85 °F 77.8 °F 0 watt/m2 8 mph E 75 % 29.704 in Hg 0 in
09/01/2026 09:00 PM 85 °F 85 °F 84 °F 86 °F 78.2 °F 0 watt/m2 6 mph E 76 % 29.691 in Hg 0 in
09/01/2026 08:45 PM 87 °F 86 °F 86 °F 88 °F 78.4 °F 0 watt/m2 6 mph ESE 76 % 29.697 in Hg 0 in
09/01/2026 08:30 PM 88 °F 88 °F 87 °F 89 °F 79.1 °F 0 watt/m2 12 mph ESE 75 % 29.699 in Hg 0 in
09/01/2026 08:15 PM 90 °F 90 °F 89 °F 91 °F 81.7 °F 0 watt/m2 13 mph ESE 73 % 29.692 in Hg 0 in
09/01/2026 08:00 PM 92 °F 92 °F 91 °F 93 °F 86 °F 0 watt/m2 13 mph NE 69 % 29.671 in Hg 0 in
09/01/2026 07:45 PM 94 °F 94 °F 94 °F 96 °F 89.1 °F 11 watt/m2 8 mph WSW 71 % 29.628 in Hg 0 in
09/01/2026 07:30 PM 96 °F 96 °F 95 °F 97 °F 90.1 °F 41 watt/m2 7 mph SW 69 % 29.638 in Hg 0 in
09/01/2026 07:15 PM 98 °F 98 °F 97 °F 99 °F 90.7 °F 72 watt/m2 7 mph SW 68 % 29.638 in Hg 0 in
09/01/2026 07:00 PM 99 °F 99 °F 98 °F 100 °F 91 °F 108 watt/m2 7 mph SW 67 % 29.646 in Hg 0 in
09/01/2026 06:45 PM 100 °F 101 °F 99 °F 101 °F 91.2 °F 89 watt/m2 7 mph SW 67 % 29.652 in Hg 0 in
09/01/2026 06:30 PM 101 °F 103 °F 101 °F 103 °F 91.6 °F 74 watt/m2 8 mph SW 66 % 29.645 in Hg 0 in
09/01/2026 06:15 PM 103 °F 105 °F 103 °F 105 °F 92.2 °F 92 watt/m2 6 mph SW 65 % 29.64 in Hg 0 in
09/01/2026 06:00 PM 105 °F 107 °F 105 °F 107 °F 92.7 °F 229 watt/m2 8 mph SW 64 % 29.648 in Hg 0 in
09/01/2026 05:45 PM 106 °F 108 °F 106 °F 108 °F 93.1 °F 201 watt/m2 7 mph SW 64 % 29.645 in Hg 0 in
09/01/2026 05:30 PM 107 °F 110 °F 108 °F 110 °F 93.4 °F 300 watt/m2 10 mph SW 64 % 29.653 in Hg 0 in
09/01/2026 05:15 PM 109 °F 111 °F 111 °F 111 °F 93.5 °F 342 watt/m2 11 mph WSW 64 % 29.652 in Hg 0 in
09/01/2026 05:00 PM 110 °F 112 °F 112 °F 111 °F 93.3 °F 410 watt/m2 7 mph WSW 64 % 29.653 in Hg 0 in
09/01/2026 04:45 PM 112 °F 113 °F 113 °F 112 °F 92.9 °F 388 watt/m2 8 mph WSW 64 % 29.658 in Hg 0 in
09/01/2026 04:30 PM 113 °F 114 °F 114 °F 114 °F 92.8 °F 356 watt/m2 11 mph NNW 64 % 29.659 in Hg 0 in
09/01/2026 04:15 PM 114 °F 115 °F 115 °F 115 °F 93 °F 515 watt/m2 13 mph WSW 64 % 29.666 in Hg 0 in
09/01/2026 04:00 PM 114 °F 114 °F 115 °F 115 °F 92.8 °F 571 watt/m2 13 mph W 64 % 29.671 in Hg 0 in
09/01/2026 03:45 PM 114 °F 114 °F 114 °F 114 °F 92.9 °F 609 watt/m2 13 mph WSW 64 % 29.675 in Hg 0 in
09/01/2026 03:30 PM 112 °F 112 °F 113 °F 112 °F 92.5 °F 633 watt/m2 12 mph WSW 64 % 29.683 in Hg 0 in
09/01/2026 03:15 PM 111 °F 110 °F 111 °F 111 °F 92.1 °F 659 watt/m2 11 mph SW 66 % 29.684 in Hg 0 in
09/01/2026 03:00 PM 109 °F 108 °F 109 °F 109 °F 91 °F 736 watt/m2 12 mph WSW 68 % 29.688 in Hg 0 in
09/01/2026 02:45 PM 106 °F 107 °F 106 °F 107 °F 89.8 °F 286 watt/m2 14 mph WNW 69 % 29.694 in Hg 0 in
09/01/2026 02:30 PM 108 °F 108 °F 108 °F 109 °F 90.1 °F 317 watt/m2 11 mph W 69 % 29.694 in Hg 0 in
09/01/2026 02:15 PM 110 °F 110 °F 110 °F 110 °F 90.7 °F 517 watt/m2 12 mph WSW 68 % 29.699 in Hg 0 in
09/01/2026 02:00 PM 109 °F 109 °F 109 °F 110 °F 90.2 °F 510 watt/m2 10 mph SW 70 % 29.701 in Hg 0 in
09/01/2026 01:45 PM 108 °F 108 °F 109 °F 109 °F 89.8 °F 768 watt/m2 12 mph SW 70 % 29.7 in Hg 0 in
09/01/2026 01:30 PM 105 °F 105 °F 105 °F 106 °F 88.8 °F 657 watt/m2 9 mph SW 72 % 29.698 in Hg 0 in
09/01/2026 01:15 PM 103 °F 103 °F 104 °F 105 °F 88.2 °F 456 watt/m2 10 mph SW 72 % 29.701 in Hg 0 in
09/01/2026 01:00 PM 100 °F 101 °F 101 °F 103 °F 87.7 °F 506 watt/m2 11 mph SW 73 % 29.71 in Hg 0 in
09/01/2026 12:45 PM 98 °F 98 °F 99 °F 100 °F 86.8 °F 481 watt/m2 8 mph SSW 75 % 29.714 in Hg 0 in
09/01/2026 12:30 PM 94 °F 94 °F 94 °F 96 °F 85.9 °F 583 watt/m2 7 mph SW 77 % 29.713 in Hg 0 in
09/01/2026 12:15 PM 92 °F 92 °F 92 °F 94 °F 84.5 °F 498 watt/m2 6 mph SW 80 % 29.718 in Hg 0 in
09/01/2026 12:00 PM 89 °F 89 °F 89 °F 91 °F 83.4 °F 222 watt/m2 7 mph SW 81 % 29.729 in Hg 0 in
09/01/2026 11:45 AM 89 °F 89 °F 89 °F 91 °F 83.2 °F 206 watt/m2 6 mph SW 82 % 29.733 in Hg 0 in
09/01/2026 11:30 AM 88 °F 88 °F 88 °F 91 °F 82.8 °F 200 watt/m2 4 mph SW 83 % 29.736 in Hg 0 in
09/01/2026 11:15 AM 88 °F 88 °F 88 °F 91 °F 82.7 °F 141 watt/m2 5 mph SW 83 % 29.732 in Hg 0 in
09/01/2026 11:00 AM 88 °F 88 °F 88 °F 91 °F 82.5 °F 209 watt/m2 5 mph SW 84 % 29.734 in Hg 0 in
09/01/2026 10:45 AM 88 °F 88 °F 87 °F 90 °F 82.5 °F 196 watt/m2 7 mph SW 83 % 29.74 in Hg 0 in
09/01/2026 10:30 AM 88 °F 87 °F 87 °F 90 °F 82.8 °F 208 watt/m2 7 mph SW 83 % 29.736 in Hg 0 in
09/01/2026 10:15 AM 87 °F 86 °F 86 °F 89 °F 82.9 °F 505 watt/m2 6 mph SSW 84 % 29.734 in Hg 0 in
09/01/2026 10:00 AM 83 °F 82 °F 82 °F 86 °F 80.9 °F 488 watt/m2 5 mph SW 87 % 29.736 in Hg 0 in
09/01/2026 09:45 AM 80 °F 79 °F 80 °F 83 °F 79.2 °F 421 watt/m2 4 mph SW 89 % 29.734 in Hg 0 in
09/01/2026 09:30 AM 77 °F 77 °F 78 °F 81 °F 77.1 °F 385 watt/m2 3 mph SW 92 % 29.745 in Hg 0 in
09/01/2026 09:15 AM 75 °F 75 °F 76 °F 78 °F 75.8 °F 122 watt/m2 3 mph SW 92 % 29.751 in Hg 0 in
09/01/2026 09:00 AM 75 °F 74 °F 75 °F 78 °F 75.7 °F 112 watt/m2 4 mph SW 93 % 29.745 in Hg 0 in
09/01/2026 08:45 AM 74 °F 74 °F 74 °F 77 °F 75.4 °F 54 watt/m2 3 mph SW 92 % 29.746 in Hg 0 in
09/01/2026 08:30 AM 74 °F 74 °F 74 °F 77 °F 75.4 °F 45 watt/m2 4 mph SW 93 % 29.754 in Hg 0 in
09/01/2026 08:15 AM 74 °F 73 °F 74 °F 77 °F 75.1 °F 36 watt/m2 2 mph SW 93 % 29.756 in Hg 0 in
09/01/2026 08:00 AM 74 °F 73 °F 74 °F 76 °F 74.7 °F 49 watt/m2 2 mph SW 93 % 29.754 in Hg 0 in
09/01/2026 07:45 AM 73 °F 73 °F 74 °F 76 °F 74.4 °F 65 watt/m2 3 mph SW 93 % 29.749 in Hg 0 in
09/01/2026 07:30 AM 72 °F 72 °F 73 °F 75 °F 74 °F 64 watt/m2 1 mph SW 93 % 29.753 in Hg 0 in
09/01/2026 07:15 AM 72 °F 71 °F 72 °F 75 °F 73.8 °F 16 watt/m2 1 mph SW 93 % 29.759 in Hg 0 in
09/01/2026 07:00 AM 72 °F 71 °F 72 °F 75 °F 73.7 °F 9 watt/m2 1 mph SW 93 % 29.755 in Hg 0 in
09/01/2026 06:45 AM 72 °F 71 °F 72 °F 75 °F 73.8 °F 1 watt/m2 1 mph SW 93 % 29.75 in Hg 0 in
09/01/2026 06:30 AM 72 °F 71 °F 72 °F 75 °F 74 °F 0 watt/m2 2 mph SW 93 % 29.747 in Hg 0 in
09/01/2026 06:15 AM 72 °F 71 °F 72 °F 75 °F 74 °F 0 watt/m2 1 mph SW 92 % 29.745 in Hg 0 in
09/01/2026 06:00 AM 72 °F 71 °F 72 °F 75 °F 74 °F 0 watt/m2 0 mph --- 92 % 29.743 in Hg 0 in
09/01/2026 05:45 AM 72 °F 71 °F 72 °F 75 °F 74 °F 0 watt/m2 0 mph --- 92 % 29.738 in Hg 0 in
09/01/2026 05:30 AM 72 °F 71 °F 72 °F 75 °F 74 °F 0 watt/m2 1 mph SW 92 % 29.744 in Hg 0 in
09/01/2026 05:15 AM 72 °F 72 °F 73 °F 75 °F 74.2 °F 0 watt/m2 1 mph SW 92 % 29.743 in Hg 0 in
09/01/2026 05:00 AM 72 °F 72 °F 72 °F 75 °F 74.2 °F 0 watt/m2 2 mph SW 92 % 29.744 in Hg 0 in
09/01/2026 04:45 AM 72 °F 72 °F 72 °F 75 °F 74.4 °F 0 watt/m2 2 mph SW 92 % 29.751 in Hg 0 in
09/01/2026 04:30 AM 72 °F 72 °F 72 °F 75 °F 74.2 °F 0 watt/m2 0 mph --- 91 % 29.754 in Hg 0 in
09/01/2026 04:15 AM 72 °F 72 °F 73 °F 75 °F 74.1 °F 0 watt/m2 0 mph --- 91 % 29.757 in Hg 0 in
09/01/2026 04:00 AM 72 °F 72 °F 73 °F 75 °F 74.2 °F 0 watt/m2 0 mph --- 90 % 29.754 in Hg 0 in
09/01/2026 03:45 AM 72 °F 72 °F 73 °F 75 °F 74.3 °F 0 watt/m2 1 mph SW 91 % 29.751 in Hg 0 in
09/01/2026 03:30 AM 72 °F 72 °F 73 °F 75 °F 74.4 °F 0 watt/m2 2 mph SW 91 % 29.749 in Hg 0 in
09/01/2026 03:15 AM 72 °F 72 °F 73 °F 76 °F 74.4 °F 0 watt/m2 1 mph SW 91 % 29.755 in Hg 0 in
09/01/2026 03:00 AM 72 °F 72 °F 73 °F 76 °F 74.3 °F 0 watt/m2 1 mph SW 91 % 29.751 in Hg 0 in
09/01/2026 02:45 AM 72 °F 72 °F 74 °F 76 °F 74.3 °F 0 watt/m2 2 mph SW 90 % 29.764 in Hg 0 in
09/01/2026 02:30 AM 72 °F 72 °F 74 °F 76 °F 74.4 °F 0 watt/m2 2 mph SW 90 % 29.763 in Hg 0 in
09/01/2026 02:15 AM 73 °F 72 °F 73 °F 76 °F 74.7 °F 0 watt/m2 2 mph SW 90 % 29.768 in Hg 0 in
09/01/2026 02:00 AM 73 °F 72 °F 73 °F 76 °F 74.8 °F 0 watt/m2 0 mph --- 89 % 29.771 in Hg 0 in
09/01/2026 01:45 AM 73 °F 72 °F 74 °F 76 °F 74.9 °F 0 watt/m2 1 mph SW 90 % 29.781 in Hg 0 in
09/01/2026 01:30 AM 73 °F 72 °F 74 °F 76 °F 75 °F 0 watt/m2 2 mph SW 90 % 29.775 in Hg 0 in

Alarms Station information Line AH Subdivision LANCASTER